Time;durP1;ratioP1;P1;durP2;ratioP2;P2;SDS_P1;SDS_P2;PMS_P1;PMS_P2;Temp;Humidity;BMP_temperature;BMP_pressure;BME280_temperature;BME280_humidity;BME280_pressure;Samples;Min_cycle;Max_cycle;Signal;HPM_P1;HPM_P2
2023/05/29 00:00:48;;;;;;;1.73;1.63;;;18.50;72.40;;;18.99;nan;100699.34;5025632;28;20661;-67
2023/05/29 00:03:17;;;;;;;2.27;2.00;;;18.50;72.40;;;18.97;nan;100698.69;5010226;28;21216;-67
2023/05/29 00:05:44;;;;;;;2.53;2.33;;;18.50;72.50;;;18.97;nan;100701.34;5010147;28;20657;-67
2023/05/29 00:08:11;;;;;;;2.17;1.70;;;18.50;72.50;;;18.96;nan;100704.13;5015859;28;20624;-67
2023/05/29 00:10:38;;;;;;;2.37;2.03;;;18.40;72.60;;;18.93;nan;100707.09;5014297;28;20733;-67
2023/05/29 00:13:06;;;;;;;1.60;1.50;;;18.40;72.80;;;18.92;nan;100708.06;5011274;28;20633;-68
2023/05/29 00:15:34;;;;;;;2.33;2.00;;;18.40;73.10;;;18.90;nan;100707.41;5047291;28;20643;-67
2023/05/29 00:18:01;;;;;;;2.80;1.50;;;18.40;73.30;;;18.89;nan;100705.78;5016359;28;20645;-70
2023/05/29 00:20:28;;;;;;;1.80;1.70;;;18.40;73.40;;;18.86;nan;100701.63;5012261;28;20645;-67
2023/05/29 00:22:55;;;;;;;2.87;1.93;;;18.40;73.40;;;18.83;nan;100706.41;5008585;28;20715;-68
2023/05/29 00:25:22;;;;;;;1.90;1.80;;;18.40;73.50;;;18.79;nan;100699.78;5011838;28;20668;-69
2023/05/29 00:27:49;;;;;;;1.60;1.50;;;18.30;73.50;;;18.76;nan;100700.91;5025068;28;20627;-68
2023/05/29 00:30:16;;;;;;;1.50;1.40;;;18.30;73.80;;;18.69;nan;100713.16;5024336;28;20653;-66
2023/05/29 00:32:43;;;;;;;2.30;2.00;;;18.20;74.10;;;18.66;nan;100702.03;5027263;28;20633;-68
2023/05/29 00:35:10;;;;;;;1.77;1.67;;;18.20;74.30;;;18.66;nan;100705.53;5028231;28;20609;-67
2023/05/29 00:37:37;;;;;;;1.50;1.40;;;18.20;74.20;;;18.66;nan;100699.41;5026978;28;20640;-68
2023/05/29 00:40:06;;;;;;;2.17;1.97;;;18.20;74.10;;;18.66;nan;100708.16;5029269;28;20660;-67
2023/05/29 00:42:33;;;;;;;1.90;1.80;;;18.20;74.30;;;18.61;nan;100701.72;5028402;28;20670;-67
2023/05/29 00:45:00;;;;;;;2.73;1.90;;;18.10;74.60;;;18.57;nan;100702.03;5029541;28;20664;-66
2023/05/29 00:47:27;;;;;;;1.60;1.50;;;18.10;74.90;;;18.58;nan;100702.84;5022616;28;20617;-65
2023/05/29 00:49:56;;;;;;;1.93;1.73;;;18.10;75.10;;;18.56;nan;100697.75;5018867;28;21319;-66
2023/05/29 00:52:25;;;;;;;2.00;1.57;;;18.10;75.30;;;18.48;nan;100705.63;5023352;28;20641;-65
2023/05/29 00:54:54;;;;;;;1.93;1.80;;;18.00;75.70;;;18.43;nan;100707.06;5011243;28;20633;-68
2023/05/29 00:57:22;;;;;;;2.30;2.10;;;18.00;76.20;;;18.36;nan;100706.88;5010570;28;20641;-68
2023/05/29 00:59:50;;;;;;;3.50;1.93;;;17.90;76.30;;;18.31;nan;100706.53;5027189;28;20657;-67
2023/05/29 01:02:18;;;;;;;1.80;1.70;;;17.80;76.90;;;18.28;nan;100698.91;5010486;28;20641;-65
2023/05/29 01:04:45;;;;;;;1.70;1.60;;;17.80;77.10;;;18.25;nan;100701.03;5009161;28;20699;-67
2023/05/29 01:07:13;;;;;;;4.10;2.33;;;17.80;77.40;;;18.25;nan;100699.22;5009059;28;20637;-68
2023/05/29 01:09:42;;;;;;;2.00;1.90;;;17.80;77.50;;;18.24;nan;100702.00;5012985;28;20649;-67
2023/05/29 01:12:37;;;;;;;2.13;2.03;;;17.80;77.60;;;18.20;nan;100703.31;5010146;28;20629;-67
2023/05/29 01:15:34;;;;;;;2.30;1.90;;;17.70;77.70;;;18.20;nan;100701.50;5025323;28;20642;-68
2023/05/29 01:18:26;;;;;;;2.37;1.80;;;17.80;78.10;;;18.17;nan;100699.19;5024326;28;20638;-67
2023/05/29 01:21:49;;;;;;;2.00;1.80;;;17.70;78.10;;;18.14;nan;100704.78;5020356;28;20661;-68
2023/05/29 01:24:42;;;;;;;2.47;2.27;;;17.70;78.60;;;18.09;nan;100700.94;5022141;28;21046;-69
2023/05/29 01:27:18;;;;;;;2.53;2.20;;;17.60;78.80;;;18.09;nan;100699.13;5043337;28;20631;-68
2023/05/29 01:29:47;;;;;;;4.50;2.10;;;17.70;79.10;;;18.09;nan;100700.94;5048641;28;21011;-66
2023/05/29 01:32:14;;;;;;;2.40;2.20;;;17.60;79.40;;;18.04;nan;100692.69;5051046;28;21155;-67
2023/05/29 01:34:41;;;;;;;2.20;1.90;;;17.60;79.60;;;18.02;nan;100698.09;5044535;28;21198;-66
2023/05/29 01:37:08;;;;;;;3.60;1.90;;;17.50;79.70;;;17.97;nan;100696.94;5026266;28;20788;-67
2023/05/29 01:39:36;;;;;;;3.30;2.03;;;17.50;79.90;;;17.86;nan;100697.19;5009754;28;20664;-67
2023/05/29 01:42:05;;;;;;;2.27;1.87;;;17.50;80.40;;;17.83;nan;100695.66;5021269;28;20644;-68
2023/05/29 01:44:32;;;;;;;2.77;1.87;;;17.40;80.70;;;17.86;nan;100698.00;5029298;28;20682;-68
2023/05/29 01:47:00;;;;;;;2.20;2.00;;;17.40;80.80;;;17.81;nan;100687.06;5018265;28;20665;-67
2023/05/29 01:49:29;;;;;;;2.53;2.33;;;17.40;81.00;;;17.82;nan;100694.84;5020786;28;20715;-68
2023/05/29 01:51:56;;;;;;;2.30;2.10;;;17.40;81.20;;;17.79;nan;100692.53;5023604;28;20659;-67
2023/05/29 01:54:23;;;;;;;2.50;2.30;;;17.40;81.30;;;17.77;nan;100686.56;5020157;28;20632;-68
2023/05/29 01:56:51;;;;;;;2.40;2.20;;;17.30;81.40;;;17.73;nan;100689.66;5007382;28;21002;-66
2023/05/29 01:59:20;;;;;;;2.47;2.27;;;17.30;81.90;;;17.66;nan;100692.09;5007201;28;20665;-67
2023/05/29 02:01:48;;;;;;;3.53;2.27;;;17.20;82.40;;;17.58;nan;100689.41;5016022;28;20648;-67
2023/05/29 02:04:15;;;;;;;6.20;3.10;;;17.20;82.70;;;17.51;nan;100695.44;5021362;28;20639;-66
2023/05/29 02:06:42;;;;;;;3.27;2.27;;;17.10;83.30;;;17.44;nan;100691.75;5026307;28;21228;-67
2023/05/29 02:09:09;;;;;;;2.90;2.30;;;17.00;83.60;;;17.40;nan;100699.09;5013731;28;20644;-68
2023/05/29 02:11:36;;;;;;;1.97;1.77;;;17.00;84.00;;;17.36;nan;100691.66;5038173;28;20637;-67
2023/05/29 02:14:04;;;;;;;3.37;2.20;;;16.90;84.40;;;17.30;nan;100694.91;5038014;28;20628;-67
2023/05/29 02:16:33;;;;;;;2.40;1.87;;;16.90;85.00;;;17.27;nan;100687.31;5018350;28;20641;-67
2023/05/29 02:19:01;;;;;;;3.93;2.37;;;16.80;85.50;;;17.25;nan;100686.63;5019239;28;20627;-68
2023/05/29 02:21:29;;;;;;;2.67;2.47;;;16.80;85.80;;;17.23;nan;100686.75;5026301;28;20637;-67
2023/05/29 02:23:56;;;;;;;2.90;1.90;;;16.80;86.10;;;17.20;nan;100687.06;5033696;28;20632;-68
2023/05/29 02:26:23;;;;;;;2.93;2.60;;;16.80;86.50;;;17.18;nan;100689.03;5027242;28;20677;-67
2023/05/29 02:28:50;;;;;;;2.50;2.30;;;16.70;86.80;;;17.16;nan;100687.53;5022680;28;20644;-70
2023/05/29 02:31:17;;;;;;;7.20;1.77;;;16.70;87.20;;;17.16;nan;100684.91;5022457;28;20655;-67
2023/05/29 02:33:43;;;;;;;3.33;2.27;;;16.70;87.20;;;17.14;nan;100692.13;5029770;28;20639;-67
2023/05/29 02:36:11;;;;;;;2.47;2.10;;;16.70;87.80;;;17.07;nan;100691.91;5035807;28;20631;-67
2023/05/29 02:38:40;;;;;;;2.27;2.03;;;16.70;88.30;;;17.04;nan;100692.19;5036006;28;20637;-67
2023/05/29 02:41:06;;;;;;;2.67;2.10;;;16.60;89.10;;;16.98;nan;100691.00;5036048;28;20676;-67
2023/05/29 02:43:34;;;;;;;3.03;2.10;;;16.60;89.50;;;16.94;nan;100692.28;5033174;28;20629;-67
2023/05/29 02:46:01;;;;;;;3.23;2.43;;;16.60;89.80;;;16.87;nan;100693.84;5020435;28;20665;-71
2023/05/29 02:48:29;;;;;;;3.90;2.30;;;16.50;90.20;;;16.84;nan;100688.88;5048696;28;20635;-68
2023/05/29 02:50:56;;;;;;;2.13;1.97;;;16.40;90.50;;;16.80;nan;100692.75;5034669;28;21011;-67
2023/05/29 02:53:23;;;;;;;2.17;1.60;;;16.40;90.80;;;16.77;nan;100695.72;5030769;28;20627;-67
2023/05/29 02:55:51;;;;;;;4.73;2.33;;;16.40;91.10;;;16.77;nan;100698.34;5030539;28;20644;-68
2023/05/29 02:58:18;;;;;;;2.80;2.03;;;16.40;91.20;;;16.71;nan;100685.78;5030273;28;20669;-67
2023/05/29 03:00:45;;;;;;;1.90;1.80;;;16.30;91.40;;;16.67;nan;100692.31;5027707;28;20673;-65
2023/05/29 03:03:12;;;;;;;2.27;1.90;;;16.30;91.70;;;16.64;nan;100689.13;5021457;28;20625;-69
2023/05/29 03:05:39;;;;;;;3.10;2.40;;;16.30;91.90;;;16.62;nan;100686.66;5013409;28;20857;-66
2023/05/29 03:08:06;;;;;;;4.50;2.00;;;16.20;92.20;;;16.61;nan;100692.88;5013278;28;20617;-67
2023/05/29 03:10:33;;;;;;;3.27;2.10;;;16.20;92.30;;;16.58;nan;100687.91;5010844;28;20645;-67
2023/05/29 03:13:00;;;;;;;2.03;1.90;;;16.20;92.40;;;16.56;nan;100689.88;5023518;28;20650;-65
2023/05/29 03:15:27;;;;;;;2.50;1.90;;;16.10;92.60;;;16.51;nan;100678.94;5024483;28;20617;-67
2023/05/29 03:17:54;;;;;;;3.00;2.23;;;16.10;92.80;;;16.55;nan;100687.38;5018828;28;21505;-67
2023/05/29 03:20:21;;;;;;;2.20;2.00;;;16.10;93.00;;;16.53;nan;100692.78;5026385;28;20675;-68
2023/05/29 03:22:48;;;;;;;1.93;1.70;;;16.20;92.90;;;16.49;nan;100694.03;5013523;28;20597;-67
2023/05/29 03:25:16;;;;;;;2.27;1.90;;;16.10;93.00;;;16.43;nan;100685.88;5030221;28;20718;-65
2023/05/29 03:27:43;;;;;;;2.03;1.93;;;16.00;93.30;;;16.43;nan;100691.16;5018201;28;20637;-69
2023/05/29 03:30:11;;;;;;;5.87;2.73;;;16.00;93.60;;;16.40;nan;100687.00;5030107;28;20657;-66
2023/05/29 03:32:38;;;;;;;2.30;1.83;;;16.00;93.70;;;16.39;nan;100695.91;5012799;28;20995;-68
2023/05/29 03:35:06;;;;;;;2.80;2.13;;;16.00;93.90;;;16.41;nan;100693.09;5014204;28;20669;-68
2023/05/29 03:37:33;;;;;;;2.30;2.20;;;16.00;94.00;;;16.44;nan;100692.81;5032860;28;20643;-67
2023/05/29 03:40:00;;;;;;;3.17;2.50;;;16.00;93.90;;;16.41;nan;100699.22;5051605;28;20663;-67
2023/05/29 03:42:27;;;;;;;2.43;2.23;;;16.00;94.00;;;16.42;nan;100705.31;5033225;28;21214;-66
2023/05/29 03:44:54;;;;;;;2.23;2.13;;;16.00;94.20;;;16.44;nan;100704.16;5037375;28;21217;-67
2023/05/29 03:47:21;;;;;;;2.30;1.47;;;16.00;94.30;;;16.42;nan;100705.31;5036960;28;20635;-66
2023/05/29 03:49:48;;;;;;;2.47;2.27;;;16.00;94.50;;;16.41;nan;100701.84;5034949;28;20643;-67
2023/05/29 03:52:15;;;;;;;2.30;1.90;;;16.00;94.70;;;16.42;nan;100703.47;5013049;28;21249;-66
2023/05/29 03:54:44;;;;;;;3.80;2.70;;;16.00;94.90;;;16.41;nan;100706.28;5032260;28;20631;-67
2023/05/29 03:57:11;;;;;;;3.27;2.00;;;16.00;94.90;;;16.43;nan;100710.41;5044345;28;20643;-67
2023/05/29 03:59:38;;;;;;;2.13;1.90;;;16.00;95.00;;;16.46;nan;100712.75;5028869;28;21064;-67
2023/05/29 04:02:06;;;;;;;6.50;1.90;;;16.10;95.10;;;16.57;nan;100720.50;5030296;28;20635;-66
2023/05/29 04:04:33;;;;;;;4.67;1.97;;;16.10;94.90;;;16.69;nan;100714.06;5033650;28;20608;-67
2023/05/29 04:07:00;;;;;;;3.60;2.00;;;16.20;94.80;;;16.78;nan;100715.81;5015266;28;20702;-67
2023/05/29 04:09:27;;;;;;;1.63;1.53;;;16.40;94.70;;;16.89;nan;100720.88;5012015;28;20656;-66
2023/05/29 04:11:55;;;;;;;2.23;2.03;;;16.50;94.60;;;17.02;nan;100731.03;5014251;28;21184;-67
2023/05/29 04:14:22;;;;;;;2.30;2.10;;;16.60;94.30;;;17.05;nan;100730.75;5031474;28;21392;-67
2023/05/29 04:16:49;;;;;;;2.13;1.93;;;16.70;94.10;;;17.15;nan;100738.59;5017524;28;20641;-70
2023/05/29 04:19:16;;;;;;;5.80;2.07;;;16.70;93.90;;;17.16;nan;100733.19;5022808;28;20637;-68
2023/05/29 04:21:44;;;;;;;1.80;1.70;;;16.80;93.80;;;17.28;nan;100752.22;5034362;28;20655;-68
2023/05/29 04:24:11;;;;;;;3.53;2.53;;;16.90;93.60;;;17.38;nan;100760.91;5042822;28;20631;-67
2023/05/29 04:26:41;;;;;;;4.10;2.30;;;16.90;93.50;;;17.50;nan;100757.09;5030720;28;20664;-68
2023/05/29 04:29:12;;;;;;;2.80;2.33;;;17.10;93.20;;;17.61;nan;100764.78;5029452;28;20697;-66
2023/05/29 04:31:40;;;;;;;1.73;1.30;;;17.20;93.10;;;17.71;nan;100770.81;5020793;28;20625;-68
2023/05/29 04:34:07;;;;;;;2.07;1.90;;;17.30;92.90;;;17.80;nan;100769.91;5039887;28;20628;-66
2023/05/29 04:36:37;;;;;;;3.17;1.97;;;17.40;92.90;;;17.93;nan;100765.03;5042527;28;21000;-67
2023/05/29 04:39:06;;;;;;;2.97;2.67;;;17.50;92.60;;;18.05;nan;100784.09;5049197;28;20630;-67
2023/05/29 04:41:35;;;;;;;2.57;2.10;;;17.70;92.40;;;18.12;nan;100779.88;5038103;28;20645;-67
2023/05/29 04:44:03;;;;;;;2.47;2.20;;;17.70;92.20;;;18.22;nan;100777.94;5012072;28;20637;-65
2023/05/29 04:46:30;;;;;;;2.30;2.10;;;17.80;92.20;;;18.32;nan;100774.19;5011206;28;21233;-67
2023/05/29 04:48:57;;;;;;;2.10;1.63;;;17.90;92.10;;;18.40;nan;100778.69;5047759;28;21139;-66
2023/05/29 04:51:24;;;;;;;2.27;2.07;;;18.00;91.90;;;18.50;nan;100790.03;5037731;28;20699;-67
2023/05/29 04:53:51;;;;;;;2.20;2.10;;;18.10;91.90;;;18.67;nan;100788.28;5022509;28;20678;-68
2023/05/29 04:56:18;;;;;;;2.60;2.40;;;18.20;91.80;;;18.78;nan;100795.94;5028390;28;20633;-67
2023/05/29 04:58:45;;;;;;;2.47;1.90;;;18.40;91.30;;;18.79;nan;100805.50;5048870;28;20596;-68
2023/05/29 05:01:14;;;;;;;2.47;2.27;;;18.40;91.50;;;18.92;nan;100805.91;5032495;28;20665;-66
2023/05/29 05:03:41;;;;;;;2.57;2.30;;;18.50;91.50;;;18.97;nan;100806.25;5010938;28;20589;-67
2023/05/29 05:06:09;;;;;;;4.30;2.30;;;18.60;91.50;;;19.13;nan;100807.13;5009378;28;20666;-66
2023/05/29 05:08:36;;;;;;;2.57;2.37;;;18.70;91.40;;;19.22;nan;100813.28;5012302;28;20723;-68
2023/05/29 05:11:03;;;;;;;3.03;2.43;;;18.80;91.30;;;19.37;nan;100817.00;5007763;28;21237;-67
2023/05/29 05:13:30;;;;;;;2.70;2.50;;;18.90;91.30;;;19.60;nan;100819.84;5010918;28;20633;-68
2023/05/29 05:15:57;;;;;;;3.00;2.07;;;19.10;91.00;;;19.74;nan;100825.28;5011173;28;20636;-70
2023/05/29 05:18:24;;;;;;;2.43;2.33;;;19.30;90.70;;;19.93;nan;100818.88;5033767;28;20616;-66
2023/05/29 05:20:51;;;;;;;2.80;2.60;;;19.50;90.40;;;20.01;nan;100821.50;5030122;28;20672;-70
2023/05/29 05:23:18;;;;;;;2.40;2.20;;;19.60;90.10;;;20.10;nan;100823.97;5025037;28;20666;-67
2023/05/29 05:25:45;;;;;;;3.60;2.20;;;19.70;90.00;;;20.11;nan;100819.50;5030995;28;20661;-67
2023/05/29 05:28:13;;;;;;;2.17;2.00;;;19.70;89.60;;;20.02;nan;100824.00;5033179;28;20668;-68
2023/05/29 05:30:40;;;;;;;2.97;2.60;;;19.60;90.00;;;20.18;nan;100817.03;5048995;28;20666;-70
2023/05/29 05:33:07;;;;;;;4.27;2.33;;;19.80;89.70;;;20.26;nan;100825.81;5035387;28;20629;-67
2023/05/29 05:35:34;;;;;;;3.20;2.40;;;19.90;89.80;;;20.51;nan;100823.94;5014223;28;20613;-67
2023/05/29 05:38:02;;;;;;;1.60;1.50;;;20.10;89.60;;;20.76;nan;100834.31;5027922;28;20651;-67
2023/05/29 05:40:29;;;;;;;2.13;1.90;;;20.30;88.50;;;20.96;nan;100829.44;5029492;28;20664;-67
2023/05/29 05:42:56;;;;;;;2.13;1.93;;;20.50;87.90;;;21.24;nan;100835.97;5023796;28;20613;-68
2023/05/29 05:45:23;;;;;;;3.70;2.23;;;20.70;87.80;;;21.56;nan;100833.13;5020279;28;20641;-69
2023/05/29 05:47:50;;;;;;;2.07;1.97;;;21.10;86.10;;;21.70;nan;100844.00;5024177;28;20662;-69
2023/05/29 05:50:17;;;;;;;2.37;2.17;;;21.20;84.80;;;21.83;nan;100838.94;5024383;28;20671;-67
2023/05/29 05:52:45;;;;;;;3.60;2.27;;;21.30;84.90;;;22.03;nan;100834.78;5022368;28;20648;-69
2023/05/29 05:55:12;;;;;;;1.40;1.30;;;21.60;84.00;;;22.15;nan;100843.97;5027965;28;20614;-67
2023/05/29 05:57:39;;;;;;;4.33;2.43;;;21.70;83.40;;;22.39;nan;100838.44;5025425;28;21318;-66
2023/05/29 06:00:12;;;;;;;1.60;1.40;;;21.90;83.40;;;22.53;nan;100844.78;5016619;28;20679;-67
2023/05/29 06:02:44;;;;;;;3.00;2.80;;;22.00;81.90;;;22.27;nan;100847.88;5020516;28;21227;-68
2023/05/29 06:05:12;;;;;;;3.47;2.93;;;21.90;81.70;;;22.40;nan;100842.75;5025186;28;21306;-70
2023/05/29 06:07:39;;;;;;;2.63;2.43;;;21.90;82.30;;;22.58;nan;100851.19;5022666;28;20677;-68
2023/05/29 06:10:06;;;;;;;2.73;2.53;;;22.10;81.10;;;22.57;nan;100851.38;5022173;28;20668;-67
2023/05/29 06:12:37;;;;;;;3.27;2.77;;;22.20;81.10;;;22.51;nan;100849.47;5023187;28;20682;-68
2023/05/29 06:15:05;;;;;;;2.57;2.40;;;22.10;80.90;;;22.74;nan;100866.19;5025036;28;20634;-65
2023/05/29 06:17:32;;;;;;;3.70;2.90;;;22.20;81.20;;;23.14;nan;100853.25;5018374;28;21253;-69
2023/05/29 06:20:00;;;;;;;4.17;2.63;;;22.60;80.70;;;23.37;nan;100868.25;5019817;28;20672;-67
2023/05/29 06:22:27;;;;;;;3.00;2.80;;;22.90;79.60;;;23.59;nan;100864.63;5016302;28;20656;-69
2023/05/29 06:24:54;;;;;;;10.20;2.13;;;23.10;78.30;;;23.84;nan;100861.41;5021733;28;20750;-64
2023/05/29 06:27:25;;;;;;;2.57;2.37;;;23.30;77.80;;;24.06;nan;100864.94;5018350;28;21023;-64
2023/05/29 06:29:52;;;;;;;2.60;2.40;;;23.50;77.40;;;24.19;nan;100857.00;5025812;28;21235;-67
2023/05/29 06:32:20;;;;;;;3.83;2.80;;;23.80;76.90;;;24.35;nan;100854.09;5026024;28;20647;-69
2023/05/29 06:34:47;;;;;;;2.77;2.57;;;23.90;76.10;;;24.82;nan;100865.91;5043441;28;20632;-65
2023/05/29 06:37:14;;;;;;;5.57;2.90;;;24.30;75.40;;;25.43;nan;100869.50;5029053;28;20628;-68
2023/05/29 06:39:45;;;;;;;2.80;2.60;;;24.80;74.00;;;25.49;nan;100872.16;5047825;28;20655;-66
2023/05/29 06:42:12;;;;;;;3.10;2.80;;;25.00;73.10;;;25.68;nan;100867.94;5015893;28;21184;-64
2023/05/29 06:44:39;;;;;;;2.90;2.60;;;25.20;72.20;;;26.14;nan;100880.34;5028188;28;20645;-69
2023/05/29 06:47:07;;;;;;;3.97;2.80;;;25.60;71.50;;;26.45;nan;100877.03;5024599;28;20715;-66
2023/05/29 06:49:34;;;;;;;3.33;3.03;;;25.90;70.20;;;26.86;nan;100872.25;5017234;28;20676;-67
2023/05/29 06:52:01;;;;;;;2.60;2.40;;;26.40;69.10;;;27.06;nan;100882.91;5040455;28;20647;-66
2023/05/29 06:54:28;;;;;;;3.67;3.20;;;26.60;68.40;;;27.67;nan;100869.84;5030380;28;20625;-68
2023/05/29 06:56:56;;;;;;;3.63;3.30;;;27.10;67.80;;;28.06;nan;100876.84;5030415;28;20640;-67
2023/05/29 06:59:36;;;;;;;3.67;2.47;;;27.50;66.60;;;28.21;nan;100878.19;5033383;28;20660;-67
2023/05/29 07:02:03;;;;;;;4.07;2.80;;;27.80;65.60;;;28.61;nan;100886.72;5029330;28;20592;-67
2023/05/29 07:04:30;;;;;;;3.10;2.60;;;28.10;64.90;;;28.77;nan;100883.44;5015771;28;20632;-66
2023/05/29 07:06:57;;;;;;;3.00;2.50;;;28.40;63.70;;;29.55;nan;100888.94;5035573;28;20664;-67
2023/05/29 07:09:25;;;;;;;2.30;2.20;;;28.90;63.10;;;30.24;nan;100886.44;5024126;28;20668;-69
2023/05/29 07:11:52;;;;;;;2.67;2.47;;;29.60;61.50;;;30.53;nan;100885.56;5023703;28;21024;-68
2023/05/29 07:14:19;;;;;;;2.43;2.30;;;29.90;59.70;;;30.49;nan;100888.97;5022161;28;20628;-70
2023/05/29 07:16:46;;;;;;;2.83;2.53;;;30.10;58.90;;;30.93;nan;100888.34;5011960;28;20644;-72
2023/05/29 07:19:14;;;;;;;3.10;2.90;;;30.40;58.80;;;31.32;nan;100873.25;5032450;28;20999;-73
2023/05/29 07:21:45;;;;;;;3.37;2.97;;;30.70;57.70;;;31.25;nan;100886.06;5027741;28;21046;-71
2023/05/29 07:24:12;;;;;;;3.10;2.53;;;30.80;57.20;;;31.88;nan;100904.81;5012765;28;21165;-72
2023/05/29 07:26:39;;;;;;;3.87;2.40;;;31.60;55.70;;;32.56;nan;100899.22;5017377;28;20679;-73
2023/05/29 07:29:06;;;;;;;1.90;1.80;;;32.00;55.10;;;33.32;nan;100884.84;5032812;28;20673;-73
2023/05/29 07:31:33;;;;;;;3.27;2.40;;;32.70;54.30;;;33.82;nan;100890.00;5019751;28;20751;-73
2023/05/29 07:34:00;;;;;;;4.93;2.47;;;33.40;52.90;;;34.28;nan;100894.75;5013494;28;21004;-71
2023/05/29 07:36:33;;;;;;;2.53;2.40;;;33.90;51.90;;;34.51;nan;100877.31;5010576;28;21037;-74
2023/05/29 07:39:01;;;;;;;3.00;2.37;;;34.10;51.10;;;34.34;nan;100893.69;5041531;28;21191;-71
2023/05/29 07:41:28;;;;;;;3.33;3.13;;;34.00;51.40;;;34.25;nan;100887.13;5023709;28;20644;-73
2023/05/29 07:43:55;;;;;;;2.97;2.70;;;34.00;51.70;;;34.37;nan;100898.59;5014248;28;20641;-75
2023/05/29 07:46:23;;;;;;;2.93;2.73;;;34.10;50.90;;;34.72;nan;100900.75;5023626;28;21028;-74
2023/05/29 07:48:50;;;;;;;2.80;2.70;;;34.30;50.50;;;34.70;nan;100911.84;5021119;28;20635;-73
2023/05/29 07:51:17;;;;;;;2.30;2.20;;;34.40;49.50;;;34.84;nan;100895.94;5027926;28;20680;-73
2023/05/29 07:53:46;;;;;;;2.33;2.10;;;34.60;50.00;;;35.09;nan;100905.03;5024457;28;20987;-74
2023/05/29 07:56:13;;;;;;;2.60;2.40;;;34.90;49.00;;;34.99;nan;100896.06;5021100;28;20631;-73
2023/05/29 07:58:41;;;;;;;2.63;2.50;;;34.90;48.90;;;34.21;nan;100894.13;5025359;28;21417;-76
2023/05/29 08:01:08;;;;;;;2.20;2.10;;;34.50;48.50;;;34.25;nan;100909.63;5022391;28;20660;-74
2023/05/29 08:03:35;;;;;;;2.60;2.50;;;34.50;48.50;;;34.23;nan;100916.34;5022122;28;20666;-73
2023/05/29 08:06:03;;;;;;;3.50;2.53;;;34.30;48.00;;;34.57;nan;100908.78;5026916;28;21225;-73
2023/05/29 08:08:30;;;;;;;2.70;2.50;;;34.70;48.00;;;35.15;nan;100914.00;5016678;28;20669;-71
2023/05/29 08:10:57;;;;;;;1.90;1.80;;;35.10;47.80;;;35.71;nan;100915.00;5020745;28;21025;-68
2023/05/29 08:13:24;;;;;;;2.10;2.00;;;35.70;47.20;;;36.27;nan;100916.69;5018056;28;20656;-67
2023/05/29 08:15:51;;;;;;;2.37;2.27;;;36.20;46.70;;;36.99;nan;100919.03;5024413;28;20636;-69
2023/05/29 08:18:18;;;;;;;2.53;2.43;;;36.90;46.30;;;36.88;nan;100919.34;5022221;28;20652;-65
2023/05/29 08:20:45;;;;;;;2.63;2.50;;;37.00;45.50;;;37.17;nan;100915.72;5026531;28;20699;-68
2023/05/29 08:23:12;;;;;;;2.30;2.20;;;37.20;45.60;;;37.51;nan;100915.81;5040891;28;20646;-68
2023/05/29 08:25:39;;;;;;;2.63;2.43;;;37.40;45.40;;;37.80;nan;100910.50;5032324;28;20638;-69
2023/05/29 08:28:06;;;;;;;2.23;2.13;;;37.80;44.80;;;38.02;nan;100914.41;5018097;28;20672;-68
2023/05/29 08:30:33;;;;;;;2.00;1.97;;;37.90;44.30;;;38.41;nan;100908.09;5021359;28;20652;-70
2023/05/29 08:33:00;;;;;;;2.93;2.20;;;38.30;44.00;;;38.91;nan;100913.00;5026212;28;20640;-68
2023/05/29 08:35:27;;;;;;;1.47;1.47;;;38.70;43.50;;;39.20;nan;100911.06;5022729;28;20648;-69
2023/05/29 08:37:54;;;;;;;2.73;2.53;;;39.20;42.60;;;39.52;nan;100902.97;5033234;28;20618;-69
2023/05/29 08:40:21;;;;;;;1.70;1.70;;;39.50;42.80;;;39.81;nan;100905.53;5035830;28;21305;-68
2023/05/29 08:43:18;;;;;;;2.57;2.47;;;39.80;42.10;;;40.37;nan;100902.72;5013853;28;20650;-69
2023/05/29 08:45:46;;;;;;;2.40;2.30;;;40.10;42.00;;;40.69;nan;100910.06;5022001;28;20629;-69
2023/05/29 08:48:16;;;;;;;2.43;2.33;;;40.50;41.90;;;40.61;nan;100903.38;5013207;28;21042;-68
2023/05/29 08:50:46;;;;;;;2.40;2.30;;;40.50;41.40;;;40.23;nan;100894.47;5019521;28;20668;-69
2023/05/29 08:53:18;;;;;;;3.00;2.80;;;40.30;41.50;;;39.71;nan;100892.06;5021213;28;20629;-69
2023/05/29 08:55:48;;;;;;;2.07;2.00;;;40.00;41.20;;;39.89;nan;100898.59;5025176;28;20637;-69
2023/05/29 08:58:15;;;;;;;2.40;2.30;;;39.80;41.40;;;40.13;nan;100894.66;5018709;28;21198;-68
2023/05/29 09:00:45;;;;;;;1.90;1.90;;;40.00;41.30;;;40.28;nan;100893.56;5012739;28;20668;-68
2023/05/29 09:03:12;;;;;;;2.30;2.20;;;40.20;40.90;;;40.25;nan;100902.38;5014683;28;20645;-69
2023/05/29 09:05:41;;;;;;;2.47;2.37;;;40.30;40.80;;;40.50;nan;100891.00;5011559;28;20613;-69
2023/05/29 09:08:11;;;;;;;2.47;2.20;;;40.50;41.10;;;40.55;nan;100898.31;5010055;28;20681;-67
2023/05/29 09:10:44;;;;;;;2.43;2.33;;;40.60;40.50;;;40.53;nan;100895.06;5013602;28;20661;-67
2023/05/29 09:13:13;;;;;;;2.30;2.20;;;40.70;40.50;;;41.00;nan;100900.94;5012591;28;20625;-67
2023/05/29 09:15:42;;;;;;;2.37;2.27;;;40.90;40.40;;;41.00;nan;100906.44;5010257;28;20644;-67
2023/05/29 09:18:11;;;;;;;2.30;2.20;;;41.10;40.20;;;40.96;nan;100899.13;5013978;28;20625;-67
2023/05/29 09:20:38;;;;;;;2.60;2.50;;;41.00;39.80;;;41.05;nan;100891.00;5037447;28;20670;-67
2023/05/29 09:23:08;;;;;;;2.67;2.57;;;41.20;39.50;;;41.20;nan;100896.16;5013589;28;20656;-68
2023/05/29 09:25:42;;;;;;;2.70;2.60;;;41.20;39.80;;;41.58;nan;100900.25;5010874;28;20617;-68
2023/05/29 09:28:10;;;;;;;2.20;2.10;;;41.60;39.50;;;42.05;nan;100898.84;5010257;28;20672;-68
2023/05/29 09:30:44;;;;;;;2.40;2.33;;;41.80;39.30;;;42.40;nan;100892.47;5029795;28;20667;-67
2023/05/29 09:33:13;;;;;;;2.23;2.13;;;42.30;39.10;;;42.00;nan;100888.81;5045002;28;20615;-66
2023/05/29 09:35:48;;;;;;;2.37;2.27;;;42.20;38.70;;;41.59;nan;100888.19;5048966;28;20647;-67
2023/05/29 09:38:20;;;;;;;2.47;2.37;;;41.80;38.70;;;41.95;nan;100885.41;5020091;28;20619;-66
2023/05/29 09:41:05;;;;;;;2.77;2.67;;;42.00;38.20;;;42.22;nan;100883.34;5020085;28;20665;-69
2023/05/29 09:43:32;;;;;;;2.90;2.70;;;42.20;37.80;;;42.34;nan;100880.81;5009856;28;20621;-67
2023/05/29 09:46:01;;;;;;;2.30;2.20;;;42.40;38.30;;;42.38;nan;100886.47;5009856;28;20629;-69
2023/05/29 09:48:30;;;;;;;2.47;2.37;;;42.40;38.10;;;42.28;nan;100895.78;5034909;28;20675;-67
2023/05/29 09:50:58;;;;;;;2.50;2.40;;;42.40;38.10;;;42.08;nan;100879.06;5032300;28;20673;-68
2023/05/29 09:53:28;;;;;;;2.40;2.30;;;42.10;37.60;;;41.24;nan;100883.50;5020527;28;20617;-67
2023/05/29 09:55:57;;;;;;;2.70;2.60;;;41.50;38.70;;;41.07;nan;100877.81;5015476;28;20683;-64
2023/05/29 09:58:25;;;;;;;2.27;2.27;;;41.00;38.60;;;41.12;nan;100880.47;5027115;28;20697;-67
2023/05/29 10:00:53;;;;;;;2.83;2.60;;;41.00;39.10;;;40.43;nan;100878.84;5023250;28;21256;-68
2023/05/29 10:03:23;;;;;;;2.97;2.70;;;40.40;38.70;;;39.87;nan;100854.38;5017300;28;21288;-69
2023/05/29 10:05:58;;;;;;;2.70;2.50;;;39.70;39.20;;;39.12;nan;100865.31;5019830;28;20979;-66
2023/05/29 10:08:26;;;;;;;2.57;2.47;;;38.70;39.90;;;38.49;nan;100859.22;5010078;28;20719;-65
2023/05/29 10:11:03;;;;;;;2.57;2.20;;;37.90;40.20;;;37.36;nan;100868.81;5025319;28;20669;-67
2023/05/29 10:13:38;;;;;;;2.13;2.00;;;37.00;40.60;;;36.45;nan;100861.00;5010454;28;20633;-70
2023/05/29 10:16:12;;;;;;;2.37;2.20;;;35.90;41.00;;;35.56;nan;100856.09;5008852;28;20617;-66
2023/05/29 10:18:49;;;;;;;2.60;2.40;;;35.00;41.70;;;34.72;nan;100862.78;5010898;28;21189;-66
2023/05/29 10:21:17;;;;;;;2.50;2.30;;;34.20;43.20;;;34.15;nan;100855.38;5028310;28;20660;-65
2023/05/29 10:23:49;;;;;;;3.20;2.60;;;33.50;44.00;;;33.35;nan;100843.78;5027284;28;21253;-69
2023/05/29 10:26:21;;;;;;;3.37;2.60;;;32.80;44.80;;;32.76;nan;100850.88;5032482;28;20601;-66
2023/05/29 10:29:12;;;;;;;2.80;2.60;;;32.20;45.50;;;32.22;nan;100844.41;5027965;28;20741;-67
2023/05/29 10:32:10;;;;;;;5.77;2.27;;;31.60;44.90;;;32.07;nan;100853.06;5041694;28;21662;-65